Time;durP1;ratioP1;P1;durP2;ratioP2;P2;SDS_P1;SDS_P2;PMS_P1;PMS_P2;Temp;Humidity;BMP_temperature;BMP_pressure;BME280_temperature;BME280_humidity;BME280_pressure;Samples;Min_cycle;Max_cycle;Signal;HPM_P1;HPM_P2
2023/07/28 00:00:53;;;;;;;14.23;2.33;;;;;;;-142.57;76.05;115900.28;6250105;23;20020;-83
2023/07/28 00:03:18;;;;;;;5.30;1.92;;;;;;;-142.57;78.08;115900.28;6249829;23;20015;-82
2023/07/28 00:05:44;;;;;;;8.60;1.80;;;;;;;-142.57;79.68;115900.28;6223529;23;20430;-85
2023/07/28 00:08:09;;;;;;;5.35;1.73;;;;;;;-142.57;80.22;115900.28;6251453;23;20410;-85
2023/07/28 00:10:41;;;;;;;6.07;1.67;;;;;;;-142.57;79.33;115900.28;6250822;23;20035;-85
2023/07/28 00:13:06;;;;;;;5.95;1.67;;;;;;;-142.57;79.04;115900.28;6250741;23;20008;-87
2023/07/28 00:15:33;;;;;;;4.07;1.83;;;;;;;-142.57;79.25;115900.28;6250566;23;20004;-86
2023/07/28 00:17:59;;;;;;;3.00;1.42;;;;;;;-142.57;78.59;115900.28;6250931;23;20131;-84
2023/07/28 00:20:26;;;;;;;6.35;1.80;;;;;;;-142.57;78.36;115900.28;6250618;23;20008;-86
2023/07/28 00:22:51;;;;;;;3.55;1.63;;;;;;;-142.57;77.87;115900.28;6225195;23;20012;-85
2023/07/28 00:25:17;;;;;;;6.53;1.65;;;;;;;-142.57;76.41;115900.28;6251244;23;20103;-85
2023/07/28 00:27:46;;;;;;;3.88;1.70;;;;;;;-142.57;77.62;115900.28;6251070;23;20016;-84
2023/07/28 00:30:12;;;;;;;6.10;1.90;;;;;;;-142.57;76.16;115900.28;6198264;23;21384;-83
2023/07/28 00:32:38;;;;;;;8.68;1.75;;;;;;;-142.57;75.09;115900.28;6250204;23;20008;-85
2023/07/28 00:35:04;;;;;;;3.58;1.42;;;;;;;-142.57;74.03;115900.28;6249671;23;20015;-86
2023/07/28 00:37:29;;;;;;;6.18;1.60;;;;;;;-142.57;72.54;115900.28;6223001;23;20016;-87
2023/07/28 00:39:55;;;;;;;4.10;1.40;;;;;;;-142.57;72.26;115900.28;6249719;23;20020;-86
2023/07/28 00:42:21;;;;;;;6.93;1.90;;;;;;;-142.57;72.02;115900.28;6221722;23;20032;-83
2023/07/28 00:44:46;;;;;;;5.03;1.60;;;;;;;-142.57;71.83;115900.28;6250111;23;20381;-82
2023/07/28 00:47:13;;;;;;;3.90;1.77;;;;;;;-142.57;70.74;115900.28;6247564;23;20016;-82
2023/07/28 00:49:40;;;;;;;5.15;1.65;;;;;;;-142.57;71.94;115900.28;6248606;23;20005;-82
2023/07/28 00:52:07;;;;;;;8.60;1.80;;;;;;;-142.57;71.67;115900.28;6249547;23;20016;-87
2023/07/28 00:54:33;;;;;;;5.15;2.10;;;;;;;-142.57;71.01;115900.28;6250506;23;20000;-84
2023/07/28 00:56:59;;;;;;;4.85;1.77;;;;;;;-142.57;70.30;115900.28;6223109;23;20138;-84
2023/07/28 00:59:26;;;;;;;5.18;1.38;;;;;;;-142.57;69.49;115900.28;6249629;23;20330;-87
2023/07/28 01:01:52;;;;;;;8.80;2.03;;;;;;;-142.57;68.55;115900.28;6247620;23;20067;-86
2023/07/28 01:04:18;;;;;;;3.92;1.80;;;;;;;-142.57;67.90;115900.28;6249628;23;20424;-85
2023/07/28 01:07:10;;;;;;;7.57;1.38;;;;;;;-142.57;67.84;115900.28;6221992;23;20499;-83
2023/07/28 01:10:02;;;;;;;8.10;2.08;;;;;;;-142.57;67.97;115900.28;6249432;23;20012;-85
2023/07/28 01:12:28;;;;;;;4.93;1.80;;;;;;;-142.57;68.59;115900.28;6222399;23;20292;-83
2023/07/28 01:14:53;;;;;;;7.18;1.92;;;;;;;-142.57;68.30;115900.28;6249660;23;20046;-89
2023/07/28 01:17:19;;;;;;;3.22;1.42;;;;;;;-142.57;67.92;115900.28;6223708;23;20050;-84
2023/07/28 01:19:45;;;;;;;8.13;1.92;;;;;;;-142.57;69.04;115900.28;6251065;23;20031;-84
2023/07/28 01:22:17;;;;;;;6.50;1.80;;;;;;;-142.57;69.15;115900.28;6222889;23;20012;-85
2023/07/28 01:25:26;;;;;;;6.93;2.22;;;;;;;-142.57;69.37;115900.28;6222225;23;20011;-83
2023/07/28 01:27:53;;;;;;;7.30;1.80;;;;;;;-142.57;69.61;115900.28;6187729;23;20027;-84
2023/07/28 01:30:21;;;;;;;4.50;2.10;;;;;;;-142.57;69.82;115900.28;6248753;23;20062;-85
2023/07/28 01:32:48;;;;;;;8.32;1.83;;;;;;;-142.57;70.01;115900.28;6248821;23;20379;-85
2023/07/28 01:35:14;;;;;;;5.60;2.17;;;;;;;-142.57;69.68;115900.28;6249597;23;20011;-83
2023/07/28 01:37:39;;;;;;;8.50;2.30;;;;;;;-142.57;68.94;115900.28;6222770;23;20016;-83
2023/07/28 01:40:05;;;;;;;4.40;2.00;;;;;;;-142.57;69.84;115900.28;6222875;23;20024;-85
2023/07/28 01:42:31;;;;;;;5.43;2.03;;;;;;;-142.57;70.70;115900.28;6223721;23;20008;-85
2023/07/28 01:44:56;;;;;;;4.70;1.55;;;;;;;-142.57;70.68;115900.28;6250495;23;20011;-85
2023/07/28 01:47:22;;;;;;;3.80;1.70;;;;;;;-142.57;70.28;115900.28;6248887;23;20008;-85
2023/07/28 01:49:48;;;;;;;7.13;1.77;;;;;;;-142.57;69.36;115900.28;6250522;23;20012;-83
2023/07/28 01:52:13;;;;;;;6.10;2.00;;;;;;;-142.57;69.35;115900.28;6249909;23;20119;-83
2023/07/28 01:54:42;;;;;;;4.90;1.65;;;;;;;-142.57;70.30;115900.28;6224270;23;20015;-85
2023/07/28 01:57:07;;;;;;;8.55;2.15;;;;;;;-142.57;71.40;115900.28;6254196;23;20015;-84
2023/07/28 01:59:33;;;;;;;7.60;1.98;;;;;;;-142.57;72.14;115900.28;6260010;23;20003;-85
2023/07/28 02:01:59;;;;;;;6.85;1.90;;;;;;;-142.57;72.13;115900.28;6245835;23;20027;-82
2023/07/28 02:04:25;;;;;;;6.22;2.22;;;;;;;-142.57;72.23;115900.28;6245822;23;20008;-83
2023/07/28 02:06:51;;;;;;;6.30;2.10;;;;;;;-142.57;72.71;115900.28;6260602;22;20065;-82
2023/07/28 02:09:17;;;;;;;7.25;2.20;;;;;;;-142.57;71.10;115900.28;6222973;23;20012;-86
2023/07/28 02:11:45;;;;;;;7.25;2.30;;;;;;;-142.57;71.52;115900.28;6222170;23;20019;-87
2023/07/28 02:14:11;;;;;;;9.70;2.10;;;;;;;-142.57;71.59;115900.28;6227238;23;20004;-82
2023/07/28 02:16:39;;;;;;;6.55;2.17;;;;;;;-142.57;69.93;115900.28;6249646;23;20008;-86
2023/07/28 02:19:05;;;;;;;7.60;2.22;;;;;;;-142.57;69.45;115900.28;6249802;23;20458;-85
2023/07/28 02:21:30;;;;;;;7.97;1.70;;;;;;;-142.57;68.95;115900.28;6249846;23;20004;-84
2023/07/28 02:23:56;;;;;;;5.28;2.10;;;;;;;-142.57;67.66;115900.28;6247714;23;20008;-85
2023/07/28 02:26:22;;;;;;;8.55;1.90;;;;;;;-142.57;65.72;115900.28;6223377;23;20031;-84
2023/07/28 02:28:50;;;;;;;9.23;2.15;;;;;;;-142.57;64.15;115900.28;6249193;23;20016;-84
2023/07/28 02:31:16;;;;;;;10.50;2.17;;;;;;;-142.57;63.73;115900.28;6249264;23;20042;-85
2023/07/28 02:33:41;;;;;;;6.28;1.95;;;;;;;-142.57;63.29;115900.28;6250509;23;20008;-91
2023/07/28 02:36:07;;;;;;;13.75;2.45;;;;;;;-142.57;63.15;115900.28;6254099;23;20008;-90
2023/07/28 02:38:36;;;;;;;5.60;2.13;;;;;;;-142.57;62.70;115900.28;6255627;23;20089;-93
2023/07/28 02:41:03;;;;;;;4.63;1.70;;;;;;;-142.57;63.54;115900.28;6202001;23;20008;-87
2023/07/28 02:43:29;;;;;;;5.57;1.98;;;;;;;-142.57;63.38;115900.28;6223309;23;20010;-87
2023/07/28 02:45:57;;;;;;;6.57;1.85;;;;;;;-142.57;63.35;115900.28;6197635;23;20015;-84
2023/07/28 02:48:22;;;;;;;6.43;1.80;;;;;;;-142.57;63.79;115900.28;6249980;23;20339;-84
2023/07/28 02:50:50;;;;;;;7.72;2.63;;;;;;;-142.57;63.93;115900.28;6248714;23;20008;-83
2023/07/28 02:53:16;;;;;;;11.73;2.53;;;;;;;-142.57;64.98;115900.28;6248661;23;20004;-85
2023/07/28 02:55:45;;;;;;;7.82;2.45;;;;;;;-142.57;65.17;115900.28;6197259;23;20125;-84
2023/07/28 02:58:15;;;;;;;11.23;2.70;;;;;;;-142.57;65.24;115900.28;6223284;23;20020;-90
2023/07/28 03:00:42;;;;;;;10.75;2.83;;;;;;;-142.57;65.20;115900.28;6253625;23;20008;-89
2023/07/28 03:03:12;;;;;;;7.97;2.70;;;;;;;-142.57;65.50;115900.28;6231335;23;20473;-87
2023/07/28 03:05:40;;;;;;;8.60;3.00;;;;;;;-142.57;66.14;115900.28;6266247;23;20059;-85
2023/07/28 03:08:23;;;;;;;6.75;3.53;;;;;;;-142.57;66.03;115900.28;6216615;23;20377;-84
2023/07/28 03:10:49;;;;;;;8.60;3.08;;;;;;;-142.57;67.09;115900.28;6239647;23;20142;-89
2023/07/28 03:13:15;;;;;;;13.23;3.13;;;;;;;-142.57;67.56;115900.28;6238090;23;20008;-85
2023/07/28 03:15:40;;;;;;;9.25;3.40;;;;;;;-142.57;69.49;115900.28;6236001;23;20424;-86
2023/07/28 03:18:06;;;;;;;11.20;4.10;;;;;;;-142.57;70.42;115900.28;6231676;23;20016;-85
2023/07/28 03:20:33;;;;;;;10.77;4.22;;;;;;;-142.57;70.84;115900.28;6223840;23;20020;-83
2023/07/28 03:22:59;;;;;;;12.75;4.47;;;;;;;-142.57;71.07;115900.28;6255623;23;20084;-88
2023/07/28 03:25:25;;;;;;;10.43;4.53;;;;;;;-142.57;70.79;115900.28;6244595;23;20092;-85
2023/07/28 03:27:55;;;;;;;12.82;4.60;;;;;;;-142.57;71.48;115900.28;6234571;23;20083;-86
2023/07/28 03:30:20;;;;;;;11.68;4.03;;;;;;;-142.57;72.56;115900.28;6270040;23;20008;-84
2023/07/28 03:32:46;;;;;;;8.63;3.75;;;;;;;-142.57;73.89;115900.28;6267413;23;20000;-86
2023/07/28 03:35:13;;;;;;;12.02;3.65;;;;;;;-142.57;74.30;115900.28;6257969;23;20095;-84
2023/07/28 03:37:43;;;;;;;10.97;3.63;;;;;;;-142.57;74.83;115900.28;6229163;23;20051;-83
2023/07/28 03:40:09;;;;;;;15.02;4.05;;;;;;;-142.57;74.96;115900.28;6227690;23;20098;-84
2023/07/28 03:42:44;;;;;;;8.63;3.95;;;;;;;-142.57;76.07;115900.28;6226595;23;20008;-88
2023/07/28 03:45:10;;;;;;;9.48;4.38;;;;;;;-142.57;76.30;115900.28;6226783;23;20023;-84
2023/07/28 03:47:36;;;;;;;7.60;4.22;;;;;;;-142.57;76.91;115900.28;6254384;23;20367;-84
2023/07/28 03:50:02;;;;;;;13.85;4.07;;;;;;;-142.57;75.67;115900.28;6253344;23;20424;-84
2023/07/28 03:52:29;;;;;;;8.85;3.83;;;;;;;-142.57;76.40;115900.28;6201608;23;20023;-83
2023/07/28 03:54:54;;;;;;;8.63;3.45;;;;;;;-142.57;76.69;115900.28;6225902;23;20008;-83
2023/07/28 03:57:20;;;;;;;7.75;3.97;;;;;;;-142.57;76.30;115900.28;6252995;23;20087;-84
2023/07/28 03:59:45;;;;;;;10.23;3.80;;;;;;;-142.57;76.73;115900.28;6253902;23;20346;-86
2023/07/28 04:02:11;;;;;;;13.65;4.43;;;;;;;-142.57;77.42;115900.28;6201827;23;20062;-85
2023/07/28 04:04:37;;;;;;;9.38;4.20;;;;;;;-142.57;77.54;115900.28;6227531;23;20009;-84
2023/07/28 04:07:03;;;;;;;8.68;3.70;;;;;;;-142.57;77.08;115900.28;6253517;23;20023;-85
2023/07/28 04:09:28;;;;;;;8.77;3.22;;;;;;;-142.57;74.75;115900.28;6253361;23;20000;-84
2023/07/28 04:11:54;;;;;;;6.82;3.50;;;;;;;-142.57;73.66;115900.28;6252129;23;20004;-84
2023/07/28 04:14:19;;;;;;;7.63;3.53;;;;;;;-142.57;73.49;115900.28;6251926;23;20008;-82
2023/07/28 04:16:45;;;;;;;10.30;3.50;;;;;;;-142.57;73.62;115900.28;6250477;23;20313;-82
2023/07/28 04:19:15;;;;;;;7.95;3.80;;;;;;;-142.57;72.64;115900.28;6225220;23;20004;-84
2023/07/28 04:21:41;;;;;;;7.80;3.50;;;;;;;-142.57;72.64;115900.28;6251120;23;20451;-86
2023/07/28 04:24:07;;;;;;;9.70;3.38;;;;;;;-142.57;72.89;115900.28;6249944;23;20091;-84
2023/07/28 04:26:36;;;;;;;10.50;3.28;;;;;;;-142.57;72.28;115900.28;6221940;23;20084;-85
2023/07/28 04:29:03;;;;;;;13.80;3.47;;;;;;;-142.57;74.24;115900.28;6222126;23;20020;-84
2023/07/28 04:31:31;;;;;;;14.88;3.97;;;;;;;-142.57;75.21;115900.28;6222075;23;20000;-85
2023/07/28 04:34:03;;;;;;;13.80;4.55;;;;;;;-142.57;75.76;115900.28;6197325;23;20000;-85
2023/07/28 04:36:48;;;;;;;11.23;3.53;;;;;;;-142.57;75.76;115900.28;6221163;23;20039;-83
2023/07/28 04:39:16;;;;;;;11.65;3.90;;;;;;;-142.57;76.15;115900.28;6247501;23;20022;-84
2023/07/28 04:41:42;;;;;;;14.43;3.85;;;;;;;-142.57;75.90;115900.28;6248939;23;20083;-87
2023/07/28 04:44:07;;;;;;;9.25;3.67;;;;;;;-142.57;76.48;115900.28;6222093;23;20335;-86
2023/07/28 04:46:37;;;;;;;10.55;3.85;;;;;;;-142.57;76.76;115900.28;6249088;23;20518;-84
2023/07/28 04:49:07;;;;;;;12.77;3.53;;;;;;;-142.57;78.11;115900.28;6223428;23;20466;-90
2023/07/28 04:51:57;;;;;;;8.80;3.00;;;;;;;-142.57;79.82;115900.28;6250634;23;20034;-87
2023/07/28 04:54:55;;;;;;;12.57;3.42;;;;;;;-142.57;79.24;115900.28;6230802;23;20020;-88
2023/07/28 04:57:21;;;;;;;8.02;3.17;;;;;;;-142.57;80.73;115900.28;6223141;23;20043;-89
2023/07/28 04:59:46;;;;;;;10.65;3.10;;;;;;;-142.57;80.91;115900.28;6223420;23;20054;-90
2023/07/28 05:02:15;;;;;;;5.43;2.60;;;;;;;-142.57;82.33;115900.28;6225693;23;20031;-89
2023/07/28 05:04:41;;;;;;;8.30;2.95;;;;;;;-142.57;82.19;115900.28;6199763;23;20038;-90
2023/07/28 05:07:07;;;;;;;7.70;2.78;;;;;;;-142.57;82.54;115900.28;6225702;23;20004;-86
2023/07/28 05:09:32;;;;;;;11.82;2.72;;;;;;;-142.57;83.15;115900.28;6197569;23;20075;-90
2023/07/28 05:11:58;;;;;;;13.77;2.70;;;;;;;-142.57;83.01;115900.28;6202542;23;20069;-89
2023/07/28 05:14:24;;;;;;;7.70;2.30;;;;;;;-142.57;82.97;115900.28;6230413;23;20045;-91
2023/07/28 05:16:52;;;;;;;12.82;2.90;;;;;;;-142.57;82.41;115900.28;6256286;23;20493;-92
2023/07/28 05:19:33;;;;;;;10.40;3.25;;;;;;;-142.57;81.03;115900.28;6229333;23;20019;-89
2023/07/28 05:22:01;;;;;;;10.02;2.83;;;;;;;-142.57;81.10;115900.28;6254506;23;20502;-91
2023/07/28 05:24:45;;;;;;;14.55;3.03;;;;;;;-142.57;79.98;115900.28;6231136;23;20012;-90
2023/07/28 05:27:12;;;;;;;8.55;2.55;;;;;;;-142.57;78.97;115900.28;6229943;23;20134;-90
2023/07/28 05:29:38;;;;;;;9.52;2.53;;;;;;;-142.57;77.75;115900.28;6203045;23;20016;-92
2023/07/28 05:32:08;;;;;;;19.67;4.25;;;;;;;-142.57;78.18;115900.28;6226575;23;20016;-91
2023/07/28 05:34:48;;;;;;;;;;;;;;;-142.57;78.59;115900.28;6208878;23;20012;-92
2023/07/28 05:37:13;;;;;;;14.32;3.53;;;;;;;-142.57;77.91;115900.28;6257121;23;19912;-92
2023/07/28 05:39:39;;;;;;;7.78;2.20;;;;;;;-142.57;76.05;115900.28;6227901;23;20336;-90
2023/07/28 05:42:05;;;;;;;13.07;2.67;;;;;;;-142.57;74.77;115900.28;6228438;23;20016;-89
2023/07/28 05:44:31;;;;;;;9.38;2.97;;;;;;;-142.57;74.84;115900.28;6251595;23;20008;-90
2023/07/28 05:46:57;;;;;;;8.00;2.50;;;;;;;-142.57;74.09;115900.28;6203020;23;20012;-92
2023/07/28 05:49:23;;;;;;;8.23;2.60;;;;;;;-142.57;73.19;115900.28;6259223;23;20050;-91
2023/07/28 05:51:51;;;;;;;11.55;2.75;;;;;;;-142.57;72.41;115900.28;6257300;23;20019;-91
2023/07/28 05:54:17;;;;;;;10.82;2.42;;;;;;;-142.57;73.72;115900.28;6230133;23;20542;-92
2023/07/28 05:56:44;;;;;;;12.77;2.47;;;;;;;-142.57;74.56;115900.28;6228157;23;20435;-91
2023/07/28 05:59:13;;;;;;;8.50;2.70;;;;;;;-142.57;74.52;115900.28;6226985;23;20061;-91
2023/07/28 06:01:39;;;;;;;8.38;2.80;;;;;;;-142.57;75.47;115900.28;6256270;23;20442;-92
2023/07/28 06:04:11;;;;;;;11.25;2.55;;;;;;;-142.57;74.54;115900.28;6259233;23;20020;-92
2023/07/28 06:06:47;;;;;;;9.80;2.50;;;;;;;-142.57;75.11;115900.28;6203132;23;20019;-91
2023/07/28 06:09:15;;;;;;;8.85;2.53;;;;;;;-142.57;74.75;115900.28;6201234;23;20039;-91
2023/07/28 06:11:44;;;;;;;11.90;2.67;;;;;;;-142.57;73.38;115900.28;6227386;23;20012;-92
2023/07/28 06:18:02;;;;;;;10.63;3.08;;;;;;;-142.57;69.10;115900.28;6270797;22;20054;-90
2023/07/28 06:20:29;;;;;;;11.73;2.65;;;;;;;-142.57;68.93;115900.28;6272301;22;20016;-90
2023/07/28 06:22:54;;;;;;;10.80;2.75;;;;;;;-142.57;68.10;115900.28;6221909;22;20011;-92
2023/07/28 06:25:20;;;;;;;12.70;2.65;;;;;;;-142.57;67.19;115900.28;6270146;22;20064;-92
2023/07/28 06:27:47;;;;;;;8.38;2.60;;;;;;;-142.57;66.82;115900.28;6229464;23;20132;-91
2023/07/28 06:30:18;;;;;;;7.03;2.20;;;;;;;-142.57;67.11;115900.28;6227313;23;20012;-91
2023/07/28 06:32:44;;;;;;;8.57;2.40;;;;;;;-142.57;67.35;115900.28;6202306;23;20008;-91
2023/07/28 06:35:09;;;;;;;15.20;2.88;;;;;;;-142.57;67.59;115900.28;6254794;23;20035;-91
2023/07/28 06:37:38;;;;;;;8.80;2.42;;;;;;;-142.57;65.92;115900.28;6251368;23;20099;-90
2023/07/28 06:40:09;;;;;;;8.15;2.40;;;;;;;-142.57;66.60;115900.28;6232872;23;20027;-93
2023/07/28 06:42:36;;;;;;;10.43;2.50;;;;;;;-142.57;66.39;115900.28;6230860;23;20016;-91
2023/07/28 06:45:03;;;;;;;7.82;2.05;;;;;;;-142.57;65.50;115900.28;6226768;23;20012;-91
2023/07/28 06:47:29;;;;;;;14.43;2.45;;;;;;;-142.57;64.97;115900.28;6252646;23;20360;-91
2023/07/28 06:49:55;;;;;;;8.63;2.45;;;;;;;-142.57;64.49;115900.28;6229438;23;20008;-92
2023/07/28 06:52:21;;;;;;;9.57;2.53;;;;;;;-142.57;64.48;115900.28;6255339;23;20039;-91
2023/07/28 06:54:49;;;;;;;13.15;2.83;;;;;;;-142.57;64.94;115900.28;6226904;23;20095;-92
2023/07/28 06:57:15;;;;;;;18.90;2.72;;;;;;;-142.57;63.63;115900.28;6255681;23;20020;-91
2023/07/28 06:59:41;;;;;;;8.15;2.70;;;;;;;-142.57;62.74;115900.28;6233799;23;20001;-90
2023/07/28 07:02:09;;;;;;;10.98;2.88;;;;;;;-142.57;62.40;115900.28;6201366;23;20008;-92
2023/07/28 07:04:34;;;;;;;11.60;3.03;;;;;;;-142.57;61.38;115900.28;6200499;23;20459;-91
2023/07/28 07:07:00;;;;;;;10.27;3.13;;;;;;;-142.57;60.78;115900.28;6226184;23;20063;-92
2023/07/28 07:09:25;;;;;;;9.60;2.38;;;;;;;-142.57;55.39;115900.28;6249686;23;20078;-91
2023/07/28 07:11:51;;;;;;;13.85;3.05;;;;;;;-142.57;51.97;115900.28;6251924;23;20553;-89
2023/07/28 07:14:17;;;;;;;8.18;2.53;;;;;;;-142.57;51.38;115900.28;6252122;23;20012;-91
2023/07/28 07:16:43;;;;;;;10.43;3.13;;;;;;;-142.57;49.46;115900.28;6251494;23;20408;-91
2023/07/28 07:19:08;;;;;;;17.00;3.20;;;;;;;-142.57;47.66;115900.28;6234050;23;20035;-89
2023/07/28 07:21:34;;;;;;;12.57;3.28;;;;;;;-142.57;nan;115900.28;6239785;23;20038;-90
2023/07/28 07:24:01;;;;;;;12.35;3.15;;;;;;;-142.57;44.09;115900.28;6218449;23;20008;-92
2023/07/28 07:26:26;;;;;;;11.95;3.30;;;;;;;-142.57;44.97;115900.28;6239012;23;20012;-93
2023/07/28 07:28:53;;;;;;;13.30;3.90;;;;;;;-142.57;45.00;115900.28;6239095;23;20039;-92
2023/07/28 07:31:19;;;;;;;14.35;3.38;;;;;;;-142.57;42.11;115900.28;6238637;23;20004;-89
2023/07/28 07:34:04;;;;;;;13.55;3.25;;;;;;;-142.57;40.05;115900.28;6258526;23;20447;-91
2023/07/28 07:36:30;;;;;;;13.60;3.20;;;;;;;-142.57;38.86;115900.28;6249480;23;20008;-90
2023/07/28 07:38:55;;;;;;;10.05;3.35;;;;;;;-142.57;37.96;115900.28;6249919;23;20099;-92
2023/07/28 07:41:22;;;;;;;10.15;3.30;;;;;;;-142.57;38.79;115900.28;6250472;23;20004;-90
2023/07/28 07:43:50;;;;;;;17.45;3.25;;;;;;;-142.57;38.86;115900.28;6223709;23;20012;-91
2023/07/28 07:46:16;;;;;;;13.65;3.83;;;;;;;-142.57;37.72;115900.28;6222616;23;20370;-90
2023/07/28 07:48:45;;;;;;;17.55;3.72;;;;;;;-142.57;38.50;115900.28;6199883;23;20024;-91
2023/07/28 07:51:11;;;;;;;15.88;4.25;;;;;;;-142.57;39.19;115900.28;6226723;23;20008;-91
2023/07/28 07:53:37;;;;;;;16.85;3.80;;;;;;;-142.57;39.19;115900.28;6197125;23;20069;-91
2023/07/28 07:56:03;;;;;;;22.58;3.80;;;;;;;-142.57;37.96;115900.28;6249965;23;20040;-91
2023/07/28 07:58:30;;;;;;;14.32;3.97;;;;;;;-142.57;38.60;115900.28;6222208;23;20091;-92
2023/07/28 08:01:02;;;;;;;22.45;4.47;;;;;;;-142.57;38.69;115900.28;6250563;23;20001;-89
2023/07/28 08:03:28;;;;;;;9.52;4.07;;;;;;;-142.57;38.71;115900.28;6249336;23;20001;-89
2023/07/28 08:05:54;;;;;;;13.45;4.53;;;;;;;-142.57;38.66;115900.28;6221092;23;20038;-89
2023/07/28 08:08:20;;;;;;;19.02;5.13;;;;;;;-142.57;38.83;115900.28;6221090;23;20008;-90
2023/07/28 08:10:47;;;;;;;21.90;5.13;;;;;;;-142.57;37.34;115900.28;6248177;23;20343;-89
2023/07/28 08:13:13;;;;;;;17.08;4.55;;;;;;;-142.57;37.25;115900.28;6197014;23;20034;-89
2023/07/28 08:15:38;;;;;;;10.00;3.72;;;;;;;-142.57;35.24;115900.28;6249475;23;20036;-87
2023/07/28 08:18:04;;;;;;;24.30;4.57;;;;;;;-142.57;36.15;115900.28;6251233;23;20039;-90
2023/07/28 08:20:30;;;;;;;23.20;4.95;;;;;;;-142.57;36.67;115900.28;6224284;23;20004;-92
2023/07/28 08:22:55;;;;;;;22.92;4.93;;;;;;;-142.57;36.18;115900.28;6248624;23;20008;-91
2023/07/28 08:25:23;;;;;;;15.20;4.32;;;;;;;-142.57;34.58;115900.28;6225026;23;20044;-88
2023/07/28 08:27:49;;;;;;;8.00;4.30;;;;;;;-142.57;34.52;115900.28;6223232;23;20017;-90
2023/07/28 08:30:15;;;;;;;17.17;5.00;;;;;;;-142.57;33.92;115900.28;6248655;23;20073;-89
2023/07/28 08:32:41;;;;;;;152.85;11.93;;;;;;;-142.57;35.33;115900.28;6225701;23;20016;-93
2023/07/28 08:35:08;;;;;;;10.32;4.38;;;;;;;-142.57;35.63;115900.28;6228744;23;20004;-90
2023/07/28 08:37:33;;;;;;;47.38;6.07;;;;;;;-142.57;34.86;115900.28;6253512;23;20016;-92
2023/07/28 08:39:59;;;;;;;10.43;3.67;;;;;;;-142.57;35.03;115900.28;6259537;23;20008;-90
2023/07/28 08:42:54;;;;;;;9.90;3.33;;;;;;;-142.57;33.08;115900.28;6219070;23;20063;-89
2023/07/28 08:45:20;;;;;;;16.48;3.50;;;;;;;-142.57;33.10;115900.28;6246128;23;20040;-90
2023/07/28 08:47:47;;;;;;;10.68;3.78;;;;;;;-142.57;34.30;115900.28;6272427;23;20062;-91
2023/07/28 08:50:13;;;;;;;11.35;3.83;;;;;;;-142.57;32.99;115900.28;6224458;23;20075;-90
2023/07/28 08:52:39;;;;;;;11.35;3.65;;;;;;;-142.57;32.37;115900.28;6250328;23;20178;-91
2023/07/28 08:55:09;;;;;;;8.95;3.33;;;;;;;-142.57;33.12;115900.28;6223283;23;20047;-93
2023/07/28 08:57:39;;;;;;;10.00;3.03;;;;;;;-142.57;31.82;115900.28;6228947;23;20020;-90
2023/07/28 09:00:13;;;;;;;9.32;2.92;;;;;;;-142.57;32.27;115900.28;6250703;23;20016;-90
2023/07/28 09:02:39;;;;;;;8.40;3.10;;;;;;;-142.57;32.58;115900.28;6251721;23;20431;-90
2023/07/28 09:05:05;;;;;;;9.38;2.80;;;;;;;-142.57;32.10;115900.28;6227055;23;20016;-89
2023/07/28 09:07:36;;;;;;;8.77;3.22;;;;;;;-142.57;32.14;115900.28;6226869;23;20008;-92
2023/07/28 09:10:02;;;;;;;10.52;2.85;;;;;;;-142.57;31.80;115900.28;6248457;23;20091;-88
2023/07/28 09:12:31;;;;;;;8.77;2.58;;;;;;;-142.57;32.02;115900.28;6251742;23;20008;-90
2023/07/28 09:14:57;;;;;;;16.48;2.85;;;;;;;-142.57;32.04;115900.28;6250365;23;20004;-89
2023/07/28 09:17:22;;;;;;;6.05;2.72;;;;;;;-142.57;32.10;115900.28;6250198;23;20023;-89
2023/07/28 09:19:56;;;;;;;8.68;2.40;;;;;;;-142.57;31.29;115900.28;6248954;23;20019;-87
2023/07/28 09:22:22;;;;;;;8.20;2.10;;;;;;;-142.57;30.24;115900.28;6250251;23;20019;-88
2023/07/28 09:24:48;;;;;;;15.50;2.13;;;;;;;-142.57;29.72;115900.28;6225030;23;20004;-90
2023/07/28 09:27:25;;;;;;;11.93;2.50;;;;;;;-142.57;30.26;115900.28;6247452;23;20027;-89
2023/07/28 09:29:55;;;;;;;12.90;3.05;;;;;;;-142.57;30.81;115900.28;6222947;23;20008;-89
2023/07/28 09:32:29;;;;;;;15.23;3.10;;;;;;;-142.57;29.87;115900.28;6222355;23;20035;-89
2023/07/28 09:35:09;;;;;;;15.88;3.17;;;;;;;-142.57;30.27;115900.28;6251480;23;20012;-89
2023/07/28 09:37:39;;;;;;;6.95;2.38;;;;;;;-142.57;30.12;115900.28;6253273;23;20012;-91
2023/07/28 09:40:12;;;;;;;7.85;2.45;;;;;;;-142.57;30.39;115900.28;6253114;23;20012;-91
2023/07/28 09:42:41;;;;;;;16.70;2.38;;;;;;;-142.57;29.77;115900.28;6231598;23;20012;-92
2023/07/28 09:45:10;;;;;;;13.77;2.90;;;;;;;-142.57;29.65;115900.28;6259630;23;20019;-90
2023/07/28 09:47:36;;;;;;;6.47;1.85;;;;;;;-142.57;29.31;115900.28;6253451;23;20008;-89
2023/07/28 09:50:08;;;;;;;6.85;2.33;;;;;;;-142.57;29.55;115900.28;6250848;23;20012;-89
2023/07/28 09:52:37;;;;;;;15.70;3.00;;;;;;;-142.57;29.33;115900.28;6223177;23;20012;-88
2023/07/28 09:55:10;;;;;;;11.07;3.53;;;;;;;-142.57;29.85;115900.28;6224756;23;20008;-88
2023/07/28 09:57:44;;;;;;;8.27;3.47;;;;;;;-142.57;29.81;115900.28;6223035;23;20035;-87
2023/07/28 10:00:11;;;;;;;10.65;3.08;;;;;;;-142.57;30.75;115900.28;6250259;23;20062;-89
2023/07/28 10:02:40;;;;;;;6.53;2.88;;;;;;;-142.57;30.21;115900.28;6250321;23;20059;-90
2023/07/28 10:05:07;;;;;;;8.63;2.70;;;;;;;-142.57;29.58;115900.28;6249974;23;20012;-90
2023/07/28 10:07:39;;;;;;;5.88;2.60;;;;;;;-142.57;29.72;115900.28;6200217;23;20094;-89
2023/07/28 10:10:10;;;;;;;7.85;3.15;;;;;;;-142.57;29.47;115900.28;6222125;23;20012;-88
2023/07/28 10:13:23;;;;;;;10.82;3.45;;;;;;;-142.57;30.53;115900.28;6255525;23;20004;-92
2023/07/28 10:16:00;;;;;;;14.98;2.83;;;;;;;-142.57;30.54;115900.28;6227068;23;20419;-88
2023/07/28 10:18:25;;;;;;;11.27;3.20;;;;;;;-142.57;30.81;115900.28;6255136;23;20055;-88
2023/07/28 10:20:51;;;;;;;6.68;2.63;;;;;;;-142.57;29.99;115900.28;6247599;23;20012;-89
2023/07/28 10:23:21;;;;;;;17.23;3.30;;;;;;;-142.57;29.74;115900.28;6248876;23;20377;-88
2023/07/28 10:25:56;;;;;;;12.00;4.45;;;;;;;-142.57;29.63;115900.28;6250424;23;20004;-90
2023/07/28 10:28:38;;;;;;;9.73;4.57;;;;;;;-142.57;29.46;115900.28;6250537;23;20023;-92
2023/07/28 10:31:06;;;;;;;6.60;3.03;;;;;;;-142.57;29.11;115900.28;6249247;23;20466;-90
2023/07/28 10:33:46;;;;;;;10.15;3.33;;;;;;;-142.57;28.72;115900.28;6250532;23;20012;-89
2023/07/28 10:36:32;;;;;;;8.23;3.55;;;;;;;-142.57;28.50;115900.28;6250175;23;20058;-88
2023/07/28 10:39:03;;;;;;;13.00;2.85;;;;;;;-142.57;27.90;115900.28;6266328;23;20019;-89
2023/07/28 10:41:28;;;;;;;9.18;2.80;;;;;;;-142.57;28.38;115900.28;6267042;23;20012;-88
2023/07/28 10:43:54;;;;;;;6.40;2.95;;;;;;;-142.57;28.30;115900.28;6244484;23;20004;-93
2023/07/28 10:46:21;;;;;;;6.35;2.55;;;;;;;-142.57;28.28;115900.28;6271410;22;19992;-91
2023/07/28 10:48:49;;;;;;;8.18;3.10;;;;;;;-142.57;28.54;115900.28;6271560;22;20098;-87
2023/07/28 10:51:26;;;;;;;9.60;2.92;;;;;;;-142.57;28.81;115900.28;6243114;23;20036;-90
2023/07/28 10:53:55;;;;;;;7.95;3.28;;;;;;;-142.57;29.16;115900.28;6256252;23;20012;-89
2023/07/28 10:56:21;;;;;;;7.20;2.50;;;;;;;-142.57;29.20;115900.28;6256166;23;20016;-91
2023/07/28 10:58:56;;;;;;;9.40;3.17;;;;;;;-142.57;29.57;115900.28;6250548;23;20012;-90
2023/07/28 11:01:21;;;;;;;11.90;3.33;;;;;;;-142.57;29.35;115900.28;6250128;23;20110;-89
2023/07/28 11:03:48;;;;;;;7.47;2.30;;;;;;;-142.57;28.84;115900.28;6222146;23;20329;-89
2023/07/28 11:06:14;;;;;;;5.80;2.38;;;;;;;-142.57;28.95;115900.28;6249025;23;20009;-92
2023/07/28 11:08:40;;;;;;;20.02;2.80;;;;;;;-142.57;28.72;115900.28;6250350;23;20058;-89
2023/07/28 11:11:10;;;;;;;5.35;2.83;;;;;;;-142.57;28.75;115900.28;6223528;23;20013;-87
2023/07/28 11:13:35;;;;;;;5.32;2.70;;;;;;;-142.57;28.90;115900.28;6252649;23;20012;-88
2023/07/28 11:16:07;;;;;;;9.38;2.90;;;;;;;-142.57;28.02;115900.28;6254863;23;20083;-90